Time;durP1;ratioP1;P1;durP2;ratioP2;P2;SDS_P1;SDS_P2;PMS_P1;PMS_P2;Temp;Humidity;BMP_temperature;BMP_pressure;BME280_temperature;BME280_humidity;BME280_pressure;Samples;Min_cycle;Max_cycle;Signal;HPM_P1;HPM_P2
2022/05/04 00:01:04;;;;;;;11.98;2.83;;;9.90;99.90;;;;;;5080854;28;20361;-62
2022/05/04 00:03:30;;;;;;;13.18;3.17;;;9.90;99.90;;;;;;5085017;28;20124;-61
2022/05/04 00:05:55;;;;;;;11.98;3.30;;;9.90;99.90;;;;;;5083655;28;20460;-61
2022/05/04 00:08:21;;;;;;;9.55;2.67;;;9.80;99.90;;;;;;5084823;28;20182;-64
2022/05/04 00:10:46;;;;;;;11.82;3.08;;;9.80;99.90;;;;;;5081387;28;20039;-62
2022/05/04 00:13:12;;;;;;;8.75;2.67;;;9.80;99.90;;;;;;5081826;28;20135;-63
2022/05/04 00:15:37;;;;;;;11.98;3.25;;;9.80;99.90;;;;;;5081323;28;20372;-61
2022/05/04 00:18:03;;;;;;;12.30;2.80;;;9.80;99.90;;;;;;5084381;28;20074;-60
2022/05/04 00:20:29;;;;;;;9.15;3.17;;;9.80;99.90;;;;;;5084098;28;20054;-62
2022/05/04 00:22:54;;;;;;;12.02;2.97;;;9.70;99.90;;;;;;5086024;28;20543;-63
2022/05/04 00:25:20;;;;;;;15.00;3.08;;;9.70;99.90;;;;;;5080849;28;20475;-62
2022/05/04 00:27:46;;;;;;;10.05;3.33;;;9.80;99.90;;;;;;5082859;28;20036;-62
2022/05/04 00:30:12;;;;;;;11.15;2.90;;;9.80;99.90;;;;;;5082165;28;20062;-63
2022/05/04 00:32:37;;;;;;;12.57;3.45;;;9.80;99.90;;;;;;5082432;28;20506;-62
2022/05/04 00:35:03;;;;;;;13.13;3.00;;;9.80;99.90;;;;;;5082364;28;20159;-63
2022/05/04 00:37:29;;;;;;;11.48;3.58;;;9.80;99.90;;;;;;5080612;28;20066;-62
2022/05/04 00:39:54;;;;;;;10.27;3.00;;;9.80;99.90;;;;;;5083618;28;20590;-62
2022/05/04 00:42:21;;;;;;;10.88;2.92;;;9.80;99.90;;;;;;5082080;28;20044;-61
2022/05/04 00:44:49;;;;;;;10.93;3.30;;;9.80;99.90;;;;;;5085755;28;20040;-61
2022/05/04 00:47:15;;;;;;;12.77;3.38;;;9.80;99.90;;;;;;5086306;28;20040;-61
2022/05/04 00:49:43;;;;;;;12.13;3.20;;;9.80;99.90;;;;;;5084499;28;20123;-63
2022/05/04 00:52:11;;;;;;;8.52;2.92;;;9.80;99.90;;;;;;5081528;28;20933;-60
2022/05/04 00:54:37;;;;;;;9.75;3.30;;;9.80;99.90;;;;;;5084394;28;20495;-63
2022/05/04 00:57:04;;;;;;;11.55;3.22;;;9.80;99.90;;;;;;5081333;28;20067;-61
2022/05/04 00:59:32;;;;;;;9.35;2.88;;;9.70;99.90;;;;;;5085904;28;20080;-62
2022/05/04 01:01:58;;;;;;;10.65;2.85;;;9.70;99.90;;;;;;5078085;28;20098;-61
2022/05/04 01:04:25;;;;;;;10.38;3.00;;;9.70;99.90;;;;;;5082664;28;20040;-61
2022/05/04 01:06:50;;;;;;;9.85;2.92;;;9.60;99.90;;;;;;5080787;28;20483;-61
2022/05/04 01:09:16;;;;;;;9.40;2.72;;;9.70;99.90;;;;;;5082807;28;20039;-63
2022/05/04 01:11:46;;;;;;;9.45;3.15;;;9.70;99.90;;;;;;5080142;28;20140;-63
2022/05/04 01:14:12;;;;;;;8.90;2.67;;;9.70;99.90;;;;;;5084525;28;20046;-62
2022/05/04 01:16:41;;;;;;;12.88;2.90;;;9.70;99.90;;;;;;5084541;28;20096;-61
2022/05/04 01:19:07;;;;;;;8.90;2.97;;;9.70;99.90;;;;;;5082857;28;20047;-62
2022/05/04 01:21:33;;;;;;;8.88;3.17;;;9.60;99.90;;;;;;5080085;28;20058;-62
2022/05/04 01:23:59;;;;;;;9.98;3.03;;;9.60;99.90;;;;;;5086249;28;20036;-63
2022/05/04 01:26:26;;;;;;;9.40;3.30;;;9.60;99.90;;;;;;5081676;28;20160;-62
2022/05/04 01:28:51;;;;;;;11.85;3.13;;;9.60;99.90;;;;;;5083513;28;20051;-62
2022/05/04 01:31:17;;;;;;;11.68;2.78;;;9.60;99.90;;;;;;5077995;28;20040;-63
2022/05/04 01:33:42;;;;;;;11.25;3.28;;;9.70;99.90;;;;;;5081440;28;20098;-63
2022/05/04 01:36:08;;;;;;;12.23;3.08;;;9.60;99.90;;;;;;5081206;28;20517;-62
2022/05/04 01:38:35;;;;;;;7.30;2.55;;;9.60;99.90;;;;;;5086017;28;20044;-62
2022/05/04 01:41:00;;;;;;;11.77;3.33;;;9.60;99.90;;;;;;5079818;28;20033;-63
2022/05/04 01:43:26;;;;;;;9.50;3.13;;;9.60;99.90;;;;;;5079317;28;20141;-62
2022/05/04 01:45:52;;;;;;;12.20;2.92;;;9.60;99.90;;;;;;5077769;28;20108;-63
2022/05/04 01:48:18;;;;;;;7.55;3.03;;;9.60;99.90;;;;;;5080112;28;20047;-62
2022/05/04 01:50:44;;;;;;;10.15;3.35;;;9.60;99.90;;;;;;5076314;28;20115;-62
2022/05/04 01:53:10;;;;;;;9.70;3.15;;;9.60;99.90;;;;;;5081774;28;20062;-62
2022/05/04 01:55:35;;;;;;;8.25;2.85;;;9.50;99.90;;;;;;5083522;28;20079;-62
2022/05/04 01:58:05;;;;;;;11.63;2.80;;;9.50;99.90;;;;;;5085573;28;20044;-63
2022/05/04 02:00:30;;;;;;;11.32;3.17;;;9.40;99.90;;;;;;5078119;28;20052;-64
2022/05/04 02:02:56;;;;;;;9.20;3.03;;;9.40;99.90;;;;;;5083856;28;20067;-63
2022/05/04 02:05:22;;;;;;;11.27;3.47;;;9.40;99.90;;;;;;5081093;28;20105;-63
2022/05/04 02:07:48;;;;;;;13.75;3.40;;;9.40;99.90;;;;;;5083168;28;20356;-62
2022/05/04 02:10:15;;;;;;;10.13;2.90;;;9.30;99.90;;;;;;5077354;28;20042;-64
2022/05/04 02:12:41;;;;;;;9.20;3.03;;;9.30;99.90;;;;;;5080456;28;20539;-62
2022/05/04 02:15:08;;;;;;;8.57;2.83;;;9.30;99.90;;;;;;5081479;28;20040;-63
2022/05/04 02:17:35;;;;;;;10.00;3.03;;;9.30;99.90;;;;;;5083949;28;20403;-62
2022/05/04 02:20:01;;;;;;;8.25;3.25;;;9.30;99.90;;;;;;5084318;28;20492;-62
2022/05/04 02:22:27;;;;;;;12.52;3.45;;;9.30;99.90;;;;;;5082460;28;20051;-62
2022/05/04 02:24:52;;;;;;;9.65;3.00;;;9.30;99.90;;;;;;5083312;28;20072;-62
2022/05/04 02:27:18;;;;;;;13.00;3.42;;;9.20;99.90;;;;;;5079221;28;20510;-62
2022/05/04 02:29:44;;;;;;;7.05;3.00;;;9.20;99.90;;;;;;5082606;28;20040;-62
2022/05/04 02:32:10;;;;;;;11.35;3.65;;;9.20;99.90;;;;;;5077632;28;20070;-62
2022/05/04 02:37:54;;;;;;;9.07;3.42;;;9.20;99.90;;;;;;5080434;28;20055;-62
2022/05/04 02:40:06;;;;;;;7.90;2.90;;;9.20;99.90;;;;;;5084464;28;19928;-62
2022/05/04 02:42:31;;;;;;;8.90;2.85;;;9.20;99.90;;;;;;5084896;28;20048;-62
2022/05/04 02:44:58;;;;;;;9.75;3.13;;;9.20;99.90;;;;;;5087620;28;20055;-62
2022/05/04 02:47:24;;;;;;;9.10;3.10;;;9.20;99.90;;;;;;5086487;28;20163;-62
2022/05/04 02:49:49;;;;;;;10.95;3.30;;;9.20;99.90;;;;;;5087701;28;20525;-62
2022/05/04 02:52:15;;;;;;;10.68;3.03;;;9.20;99.90;;;;;;5082106;28;20575;-62
2022/05/04 02:54:40;;;;;;;10.63;3.03;;;9.10;99.90;;;;;;5085258;28;20059;-64
2022/05/04 02:57:06;;;;;;;9.15;2.90;;;9.20;99.90;;;;;;5083002;28;20080;-62
2022/05/04 02:59:32;;;;;;;11.10;3.28;;;9.20;99.90;;;;;;5080507;28;20052;-62
2022/05/04 03:04:41;;;;;;;8.45;3.10;;;9.20;99.90;;;;;;5084915;28;20081;-62
2022/05/04 03:07:07;;;;;;;9.48;3.17;;;9.20;99.90;;;;;;5086651;28;20040;-62
2022/05/04 03:09:32;;;;;;;10.25;3.20;;;9.20;99.90;;;;;;5084559;28;20076;-62
2022/05/04 03:11:58;;;;;;;9.93;3.42;;;9.20;99.90;;;;;;5083882;28;20047;-62
2022/05/04 03:14:25;;;;;;;13.05;3.75;;;9.10;99.90;;;;;;5086965;28;20384;-62
2022/05/04 03:16:52;;;;;;;7.70;3.20;;;9.10;99.90;;;;;;5089944;28;20614;-61
2022/05/04 03:19:18;;;;;;;8.20;3.10;;;9.10;99.90;;;;;;5085466;28;20384;-62
2022/05/04 03:21:44;;;;;;;9.35;3.40;;;9.10;99.90;;;;;;5085956;28;20081;-63
2022/05/04 03:24:10;;;;;;;9.05;3.40;;;9.10;99.90;;;;;;5085736;28;20493;-61
2022/05/04 03:26:36;;;;;;;10.15;3.15;;;9.10;99.90;;;;;;5086646;28;20483;-63
2022/05/04 03:29:02;;;;;;;10.13;3.42;;;9.10;99.90;;;;;;5084243;28;20032;-64
2022/05/04 03:31:29;;;;;;;8.68;3.35;;;9.10;99.90;;;;;;5083046;28;21335;-62
2022/05/04 03:33:55;;;;;;;11.35;3.65;;;9.10;99.90;;;;;;5083951;28;20051;-62
2022/05/04 03:36:21;;;;;;;11.73;3.22;;;9.10;99.90;;;;;;5082146;28;20028;-63
2022/05/04 03:38:47;;;;;;;13.63;3.58;;;9.10;99.90;;;;;;5082828;28;20062;-62
2022/05/04 03:41:12;;;;;;;8.32;3.00;;;9.10;99.90;;;;;;5081205;28;20127;-62
2022/05/04 03:43:38;;;;;;;8.90;2.95;;;9.10;99.90;;;;;;5083379;28;20040;-61
2022/05/04 03:46:18;;;;;;;11.13;3.22;;;9.00;99.90;;;;;;5077326;28;20075;-62
2022/05/04 03:48:45;;;;;;;8.75;3.03;;;9.10;99.90;;;;;;5082488;28;20119;-63
2022/05/04 03:51:13;;;;;;;9.50;3.22;;;9.10;99.90;;;;;;5080160;28;20071;-62
2022/05/04 03:53:39;;;;;;;10.32;3.63;;;9.10;99.90;;;;;;5087997;28;20043;-62
2022/05/04 03:56:04;;;;;;;6.40;3.17;;;9.00;99.90;;;;;;5081871;28;20052;-62
2022/05/04 03:58:30;;;;;;;11.85;3.58;;;9.10;99.90;;;;;;5087971;28;20058;-63
2022/05/04 04:00:56;;;;;;;12.32;3.50;;;9.00;99.90;;;;;;5085494;28;21372;-62
2022/05/04 04:03:21;;;;;;;6.57;3.03;;;9.00;99.90;;;;;;5082634;28;20044;-62
2022/05/04 04:05:47;;;;;;;9.15;3.38;;;9.00;99.90;;;;;;5080337;28;20035;-62
2022/05/04 04:08:12;;;;;;;10.70;3.30;;;9.10;99.90;;;;;;5082445;28;20039;-61
2022/05/04 04:10:38;;;;;;;8.68;3.50;;;9.00;99.90;;;;;;5081809;28;20392;-64
2022/05/04 04:13:06;;;;;;;12.27;3.35;;;9.00;99.90;;;;;;5081114;28;20206;-63
2022/05/04 04:15:32;;;;;;;7.88;3.17;;;9.00;99.90;;;;;;5086813;28;20044;-62
2022/05/04 04:17:58;;;;;;;13.55;3.55;;;9.00;99.90;;;;;;5085817;28;20498;-62
2022/05/04 04:23:27;;;;;;;10.40;3.38;;;9.00;99.90;;;;;;5020638;28;20099;-62
2022/05/04 04:25:53;;;;;;;10.68;3.50;;;9.00;99.90;;;;;;5022857;28;20042;-63
2022/05/04 04:28:18;;;;;;;13.10;3.65;;;9.00;99.90;;;;;;5049000;28;20093;-61
2022/05/04 04:30:44;;;;;;;12.98;3.78;;;9.00;99.90;;;;;;5077551;28;20097;-62
2022/05/04 04:33:09;;;;;;;9.95;3.72;;;9.10;99.90;;;;;;5079788;28;20036;-63
2022/05/04 04:35:36;;;;;;;9.80;3.10;;;9.10;99.90;;;;;;5079901;28;20494;-62
2022/05/04 04:38:01;;;;;;;10.85;3.80;;;9.10;99.90;;;;;;5076577;28;20040;-64
2022/05/04 04:40:27;;;;;;;12.40;4.05;;;9.10;99.90;;;;;;5077689;28;20040;-62
2022/05/04 04:42:53;;;;;;;10.18;3.47;;;9.10;99.90;;;;;;5075098;28;20048;-64
2022/05/04 04:45:19;;;;;;;10.90;3.40;;;9.10;99.90;;;;;;5073561;28;20048;-62
2022/05/04 04:47:45;;;;;;;8.70;3.20;;;9.20;99.90;;;;;;5072000;28;20488;-63
2022/05/04 04:50:11;;;;;;;7.78;3.30;;;9.20;99.90;;;;;;5073616;28;20046;-63
2022/05/04 04:52:37;;;;;;;11.38;3.20;;;9.20;99.90;;;;;;5074412;28;20040;-61
2022/05/04 04:55:04;;;;;;;9.00;2.85;;;9.20;99.90;;;;;;5077248;28;20052;-63
2022/05/04 04:57:29;;;;;;;11.65;4.05;;;9.10;99.90;;;;;;5074764;28;20094;-63
2022/05/04 04:59:55;;;;;;;12.07;4.32;;;9.10;99.90;;;;;;5077746;28;20119;-64
2022/05/04 05:02:20;;;;;;;15.15;4.90;;;9.10;99.90;;;;;;5075064;28;20043;-62
2022/05/04 05:04:46;;;;;;;12.35;4.05;;;9.20;99.90;;;;;;5075495;28;20052;-61
2022/05/04 05:07:11;;;;;;;7.60;3.92;;;9.20;99.90;;;;;;5075642;28;20072;-62
2022/05/04 05:09:37;;;;;;;13.75;3.80;;;9.20;99.90;;;;;;5079477;28;20050;-62
2022/05/04 05:12:02;;;;;;;10.77;3.80;;;9.30;99.90;;;;;;5077758;28;20044;-64
2022/05/04 05:17:12;;;;;;;10.40;3.67;;;9.40;99.90;;;;;;5081831;28;20089;-63
2022/05/04 05:19:37;;;;;;;8.05;3.17;;;9.40;99.90;;;;;;5082172;28;20116;-63
2022/05/04 05:22:03;;;;;;;10.45;3.15;;;9.50;99.90;;;;;;5079312;28;20195;-63
2022/05/04 05:24:29;;;;;;;9.23;3.70;;;9.50;99.90;;;;;;5071066;28;20206;-62
2022/05/04 05:26:54;;;;;;;10.07;4.13;;;9.60;99.90;;;;;;5078705;28;20044;-62
2022/05/04 05:29:20;;;;;;;13.85;4.22;;;9.70;99.90;;;;;;5076879;28;20055;-61
2022/05/04 05:31:46;;;;;;;10.18;4.03;;;9.70;99.90;;;;;;5075873;28;20052;-62
2022/05/04 05:34:11;;;;;;;13.02;4.30;;;9.80;99.90;;;;;;5070530;28;20045;-61
2022/05/04 05:36:37;;;;;;;14.80;4.43;;;9.80;99.90;;;;;;5074719;28;20058;-61
2022/05/04 05:39:03;;;;;;;11.95;4.00;;;9.80;99.90;;;;;;5074537;28;20472;-64
2022/05/04 05:41:28;;;;;;;9.98;3.72;;;9.90;99.90;;;;;;5081893;28;20043;-62
2022/05/04 05:43:54;;;;;;;11.50;3.50;;;9.90;99.90;;;;;;5081396;28;20048;-63
2022/05/04 05:46:19;;;;;;;8.10;2.90;;;10.00;99.90;;;;;;5081186;28;20040;-62
2022/05/04 05:48:47;;;;;;;13.50;3.40;;;10.10;99.90;;;;;;5081906;28;20040;-62
2022/05/04 05:51:12;;;;;;;10.85;2.90;;;10.20;99.90;;;;;;5077182;28;20500;-63
2022/05/04 05:53:38;;;;;;;10.05;3.00;;;10.20;99.90;;;;;;5075408;28;20075;-61
2022/05/04 05:56:04;;;;;;;10.52;3.00;;;10.20;99.90;;;;;;5073686;28;20150;-62
2022/05/04 05:58:30;;;;;;;10.30;3.05;;;10.30;99.90;;;;;;5075533;28;20472;-62
2022/05/04 06:00:56;;;;;;;17.33;4.32;;;10.30;99.90;;;;;;5072102;28;20044;-63
2022/05/04 06:03:22;;;;;;;12.68;3.55;;;10.30;99.90;;;;;;5081978;28;20048;-61
2022/05/04 06:05:47;;;;;;;9.95;3.33;;;10.30;99.90;;;;;;5081676;28;20456;-63
2022/05/04 06:08:13;;;;;;;10.77;3.05;;;10.30;99.90;;;;;;5079995;28;21996;-61
2022/05/04 06:10:39;;;;;;;6.32;2.78;;;10.20;99.90;;;;;;5078916;28;20056;-62
2022/05/04 06:13:06;;;;;;;9.25;3.10;;;10.30;99.90;;;;;;5082167;28;20044;-62
2022/05/04 06:15:32;;;;;;;14.82;3.95;;;10.30;99.90;;;;;;5085603;28;20093;-62
2022/05/04 06:17:58;;;;;;;12.02;3.33;;;10.30;99.90;;;;;;5087067;28;20055;-62
2022/05/04 06:20:24;;;;;;;11.18;3.22;;;10.40;99.90;;;;;;5085734;28;20040;-62
2022/05/04 06:22:50;;;;;;;7.95;2.55;;;10.50;99.90;;;;;;5085697;28;20123;-61
2022/05/04 06:25:15;;;;;;;9.25;2.95;;;10.50;99.20;;;;;;5089660;28;20108;-62
2022/05/04 06:27:41;;;;;;;8.15;3.45;;;10.70;98.80;;;;;;5093585;28;20056;-61
2022/05/04 06:35:35;;;;;;;11.02;3.08;;;10.90;97.40;;;;;;5089092;28;20051;-61
2022/05/04 06:38:01;;;;;;;11.95;2.85;;;11.10;97.10;;;;;;5092440;28;20044;-62
2022/05/04 06:40:26;;;;;;;9.88;3.03;;;11.10;96.70;;;;;;5090292;28;20051;-62
2022/05/04 06:42:52;;;;;;;10.30;3.05;;;11.00;95.60;;;;;;5092175;28;20036;-62
2022/05/04 06:45:17;;;;;;;8.77;2.88;;;11.10;95.50;;;;;;5090343;28;20036;-63
2022/05/04 06:47:43;;;;;;;9.23;3.17;;;11.30;95.50;;;;;;5092790;28;20051;-62
2022/05/04 06:50:10;;;;;;;9.52;3.20;;;11.30;94.90;;;;;;5090451;28;20352;-61
2022/05/04 06:52:37;;;;;;;10.57;2.60;;;11.40;94.50;;;;;;5092226;28;20043;-61
2022/05/04 06:55:03;;;;;;;7.05;2.53;;;11.50;93.00;;;;;;5093130;28;20048;-62
2022/05/04 06:57:29;;;;;;;9.32;2.58;;;11.80;92.10;;;;;;5091607;28;20074;-61
2022/05/04 06:59:55;;;;;;;9.93;3.10;;;12.00;91.40;;;;;;5088168;28;21144;-62
2022/05/04 07:02:21;;;;;;;8.48;2.83;;;12.10;90.20;;;;;;5088047;28;20063;-62
2022/05/04 07:04:46;;;;;;;8.75;2.70;;;12.40;90.70;;;;;;5087815;28;20097;-62
2022/05/04 07:07:12;;;;;;;9.18;2.80;;;12.50;90.10;;;;;;5092287;28;20146;-62
2022/05/04 07:09:38;;;;;;;10.68;3.00;;;12.50;88.20;;;;;;5095482;28;20040;-62
2022/05/04 07:12:04;;;;;;;9.85;2.88;;;12.40;87.60;;;;;;5093011;28;20047;-60
2022/05/04 07:14:30;;;;;;;8.63;2.72;;;12.30;87.70;;;;;;5094814;28;20511;-60
2022/05/04 07:16:55;;;;;;;9.38;2.88;;;12.30;87.80;;;;;;5091788;28;20135;-61
2022/05/04 07:19:21;;;;;;;10.93;2.95;;;12.30;87.30;;;;;;5093076;28;20048;-61
2022/05/04 07:21:46;;;;;;;8.43;2.80;;;12.10;85.70;;;;;;5094335;28;20047;-61
2022/05/04 07:24:12;;;;;;;7.57;2.60;;;12.20;86.40;;;;;;5094611;28;20079;-60
2022/05/04 07:26:39;;;;;;;9.00;3.05;;;12.20;85.20;;;;;;5090484;28;20075;-61
2022/05/04 07:29:05;;;;;;;8.10;2.83;;;12.30;85.40;;;;;;5089745;28;20083;-61
2022/05/04 07:31:30;;;;;;;9.40;2.88;;;12.40;85.00;;;;;;5086827;28;20127;-61
2022/05/04 07:33:56;;;;;;;10.60;2.92;;;12.30;85.40;;;;;;5086935;28;20040;-62
2022/05/04 07:36:21;;;;;;;8.57;2.72;;;12.20;84.80;;;;;;5086224;28;20059;-61
2022/05/04 07:38:47;;;;;;;9.48;2.75;;;12.00;84.80;;;;;;5091168;28;20119;-61
2022/05/04 07:43:56;;;;;;;9.77;2.90;;;12.20;85.20;;;;;;5086004;28;20052;-61
2022/05/04 07:46:22;;;;;;;9.85;3.15;;;12.00;84.10;;;;;;5087996;28;20040;-61
2022/05/04 07:48:47;;;;;;;8.15;2.35;;;12.00;84.00;;;;;;5092015;28;20032;-62
2022/05/04 07:51:13;;;;;;;11.05;2.97;;;12.20;83.50;;;;;;5087132;28;20128;-62
2022/05/04 07:53:38;;;;;;;8.02;2.45;;;12.50;82.60;;;;;;5087339;28;20089;-61
2022/05/04 07:56:04;;;;;;;8.23;2.60;;;12.50;81.60;;;;;;5089844;28;20075;-61
2022/05/04 07:58:30;;;;;;;8.60;2.55;;;12.30;80.00;;;;;;5086992;28;20128;-61
2022/05/04 08:06:32;;;;;;;9.20;2.75;;;11.90;81.80;;;;;;5057859;28;20375;-62
2022/05/04 08:08:57;;;;;;;9.10;2.58;;;11.60;82.30;;;;;;5083603;28;20036;-61
2022/05/04 08:11:23;;;;;;;7.60;2.70;;;11.80;83.50;;;;;;5082786;28;20414;-61
2022/05/04 08:13:48;;;;;;;11.15;2.92;;;12.00;83.40;;;;;;5085900;28;20044;-60
2022/05/04 08:16:14;;;;;;;7.10;2.38;;;12.30;83.50;;;;;;5088548;28;20044;-61
2022/05/04 08:18:40;;;;;;;11.85;3.30;;;12.60;82.40;;;;;;5090649;28;20075;-61
2022/05/04 08:21:08;;;;;;;9.00;2.97;;;12.70;80.30;;;;;;5086094;28;20050;-61
2022/05/04 08:23:33;;;;;;;8.18;2.58;;;13.00;79.90;;;;;;5087284;28;20051;-60
2022/05/04 08:25:59;;;;;;;9.00;2.63;;;13.10;79.60;;;;;;5087564;28;20048;-61
2022/05/04 08:28:25;;;;;;;9.05;3.53;;;13.00;77.60;;;;;;5086785;28;20040;-61
2022/05/04 08:30:51;;;;;;;8.50;2.78;;;13.00;77.40;;;;;;5086264;28;20032;-60
2022/05/04 08:33:16;;;;;;;7.75;2.70;;;13.20;78.00;;;;;;5087294;28;20473;-60
2022/05/04 08:35:42;;;;;;;7.80;2.50;;;13.30;76.10;;;;;;5086252;28;20130;-61
2022/05/04 08:38:07;;;;;;;7.75;2.50;;;13.60;75.70;;;;;;5085418;28;20048;-61
2022/05/04 08:40:33;;;;;;;9.00;2.60;;;13.80;73.40;;;;;;5085510;28;20487;-61
2022/05/04 08:43:05;;;;;;;10.43;2.33;;;14.10;73.00;;;;;;5085682;28;20036;-61
2022/05/04 08:45:33;;;;;;;6.55;2.13;;;13.80;70.00;;;;;;5087738;28;20406;-61
2022/05/04 08:48:00;;;;;;;10.05;2.75;;;13.70;71.00;;;;;;5088886;28;20046;-63
2022/05/04 08:50:26;;;;;;;8.63;2.67;;;13.30;71.60;;;;;;5085282;28;20499;-61
2022/05/04 08:52:56;;;;;;;8.35;2.40;;;13.30;72.10;;;;;;5087216;28;20043;-60
2022/05/04 08:55:23;;;;;;;8.35;2.70;;;13.30;72.20;;;;;;5085148;28;20066;-62
2022/05/04 08:57:50;;;;;;;9.80;2.60;;;13.10;72.00;;;;;;5086702;28;20048;-61
2022/05/04 09:00:16;;;;;;;8.57;2.38;;;13.00;72.40;;;;;;5086834;28;20048;-61
2022/05/04 09:02:42;;;;;;;7.60;2.60;;;13.20;72.20;;;;;;5086942;28;20044;-60
2022/05/04 09:05:20;;;;;;;8.98;2.70;;;13.20;72.00;;;;;;5085158;28;20063;-61
2022/05/04 09:07:51;;;;;;;8.75;2.38;;;13.30;72.30;;;;;;5084364;28;20040;-60
2022/05/04 09:10:22;;;;;;;9.88;2.45;;;13.50;71.40;;;;;;5084319;28;20051;-61
2022/05/04 09:12:48;;;;;;;9.70;2.65;;;13.60;70.70;;;;;;5084717;28;20039;-60
2022/05/04 09:15:26;;;;;;;6.40;2.42;;;13.70;70.20;;;;;;5085209;28;20051;-61
2022/05/04 09:17:57;;;;;;;8.38;2.67;;;14.10;69.50;;;;;;5087419;28;20503;-61
2022/05/04 09:23:13;;;;;;;7.07;2.33;;;14.50;67.50;;;;;;5083624;28;20063;-60
2022/05/04 09:25:39;;;;;;;10.85;2.75;;;14.70;67.80;;;;;;5084718;28;20040;-62
2022/05/04 09:28:12;;;;;;;8.70;2.50;;;14.60;65.60;;;;;;5086918;28;20110;-61
2022/05/04 09:30:49;;;;;;;7.38;2.60;;;14.70;65.10;;;;;;5086841;28;20058;-61
2022/05/04 09:33:20;;;;;;;9.45;3.03;;;14.80;65.40;;;;;;5086361;28;20078;-60
2022/05/04 09:35:46;;;;;;;8.00;2.17;;;15.00;66.60;;;;;;5085513;28;20059;-61
2022/05/04 09:46:33;;;;;;;8.90;3.30;;;15.10;66.40;;;;;;5083719;28;20044;-61
2022/05/04 09:48:58;;;;;;;10.52;2.83;;;14.90;64.80;;;;;;5087045;28;20551;-61
2022/05/04 09:51:28;;;;;;;6.63;2.25;;;14.80;64.80;;;;;;5083184;28;20115;-61
2022/05/04 09:53:54;;;;;;;6.38;2.40;;;14.70;65.00;;;;;;5084016;28;20113;-63
2022/05/04 09:56:20;;;;;;;9.77;2.90;;;14.70;64.70;;;;;;5071003;28;20495;-61
2022/05/04 09:58:46;;;;;;;7.63;2.55;;;14.30;64.50;;;;;;5086310;28;20051;-61
2022/05/04 10:01:12;;;;;;;8.15;2.40;;;14.40;64.90;;;;;;5086961;28;20114;-61
2022/05/04 10:03:38;;;;;;;6.28;2.40;;;14.50;65.80;;;;;;5086471;28;20044;-62
2022/05/04 10:06:05;;;;;;;7.00;2.20;;;14.50;65.80;;;;;;5084132;28;20496;-61
2022/05/04 10:08:30;;;;;;;10.13;2.55;;;14.60;65.70;;;;;;5084302;28;20460;-61
2022/05/04 10:10:56;;;;;;;8.68;2.85;;;14.70;65.00;;;;;;5085465;28;20044;-61
2022/05/04 10:13:22;;;;;;;7.85;2.65;;;14.60;64.00;;;;;;5086284;28;20054;-60
2022/05/04 10:15:51;;;;;;;6.93;2.53;;;14.70;64.00;;;;;;5085403;28;20040;-61
2022/05/04 10:18:35;;;;;;;7.53;2.80;;;14.80;64.80;;;;;;5085412;28;20108;-60
2022/05/04 10:21:07;;;;;;;9.68;3.15;;;14.80;64.80;;;;;;5085260;28;20139;-62
2022/05/04 10:23:39;;;;;;;8.35;2.67;;;14.50;65.80;;;;;;5086139;28;20044;-61
2022/05/04 10:26:05;;;;;;;9.05;3.22;;;14.60;65.50;;;;;;5077376;28;20048;-61
2022/05/04 10:28:40;;;;;;;8.85;2.78;;;14.70;65.20;;;;;;5085005;28;20040;-60
2022/05/04 10:31:12;;;;;;;10.25;2.80;;;14.70;64.40;;;;;;5084270;28;20048;-60
2022/05/04 10:33:43;;;;;;;9.88;3.65;;;14.70;65.00;;;;;;5084832;28;20041;-60
2022/05/04 10:36:19;;;;;;;7.88;2.85;;;14.70;64.50;;;;;;5078997;28;20066;-61
2022/05/04 10:38:50;;;;;;;7.22;2.50;;;14.80;65.20;;;;;;5084507;28;20032;-61
2022/05/04 10:41:31;;;;;;;6.18;2.83;;;14.80;65.00;;;;;;5086468;28;20506;-61
2022/05/04 10:43:57;;;;;;;9.35;2.70;;;14.50;63.90;;;;;;5085144;28;20048;-60
2022/05/04 10:46:23;;;;;;;7.20;2.90;;;14.50;64.70;;;;;;5086290;28;20040;-61
2022/05/04 10:48:56;;;;;;;9.27;2.78;;;14.40;64.40;;;;;;5084582;28;20115;-61
2022/05/04 10:51:56;;;;;;;7.57;2.55;;;14.60;64.80;;;;;;5084369;28;20075;-62
2022/05/04 10:54:22;;;;;;;8.93;3.10;;;14.90;65.40;;;;;;5071537;28;20090;-62
2022/05/04 10:56:50;;;;;;;7.70;2.78;;;15.00;65.40;;;;;;5082320;28;20062;-61
2022/05/04 11:00:00;;;;;;;11.05;2.92;;;15.00;64.70;;;;;;5083041;28;20070;-62
2022/05/04 11:02:26;;;;;;;7.18;2.50;;;15.20;64.30;;;;;;5054176;28;20690;-62
2022/05/04 11:04:53;;;;;;;9.43;2.72;;;15.30;65.40;;;;;;5082836;28;20040;-63
2022/05/04 11:07:27;;;;;;;8.18;3.33;;;15.40;64.70;;;;;;5086426;28;20079;-61
2022/05/04 11:10:00;;;;;;;9.80;2.92;;;15.50;64.60;;;;;;5087608;28;20048;-63
2022/05/04 11:12:26;;;;;;;7.97;2.90;;;15.50;64.60;;;;;;5085963;28;20369;-63
2022/05/04 11:14:51;;;;;;;7.45;2.88;;;15.40;64.70;;;;;;5085164;28;20047;-64
2022/05/04 11:17:17;;;;;;;10.00;3.05;;;15.50;64.40;;;;;;5085355;28;20195;-64
2022/05/04 11:19:44;;;;;;;11.48;3.20;;;15.60;64.70;;;;;;5083608;28;20089;-64
2022/05/04 11:22:10;;;;;;;8.70;3.10;;;15.50;63.50;;;;;;5089609;28;20040;-63
2022/05/04 11:24:37;;;;;;;8.45;2.55;;;15.40;63.10;;;;;;5089774;28;20112;-63
2022/05/04 11:27:04;;;;;;;6.45;2.33;;;15.50;63.80;;;;;;5090976;28;20070;-65
2022/05/04 11:29:29;;;;;;;8.65;2.80;;;15.40;63.80;;;;;;5092648;28;20075;-62
2022/05/04 11:31:57;;;;;;;7.35;2.80;;;15.40;61.80;;;;;;5092021;28;20065;-61
2022/05/04 11:34:23;;;;;;;8.55;2.90;;;15.40;63.70;;;;;;5088936;28;20044;-62
2022/05/04 11:36:52;;;;;;;8.82;2.63;;;15.20;62.40;;;;;;5089906;28;20044;-63
2022/05/04 11:39:20;;;;;;;8.98;2.80;;;15.00;63.10;;;;;;5088219;28;20067;-61
2022/05/04 11:41:50;;;;;;;9.65;2.63;;;15.20;63.50;;;;;;5090020;28;20062;-61
2022/05/04 11:44:21;;;;;;;9.40;3.05;;;15.20;62.90;;;;;;5088119;28;20435;-61
2022/05/04 11:46:47;;;;;;;7.68;2.70;;;15.20;62.10;;;;;;5086327;28;20357;-62
2022/05/04 11:49:14;;;;;;;8.00;2.88;;;15.30;62.30;;;;;;5085591;28;20618;-61
2022/05/04 11:51:40;;;;;;;7.28;2.17;;;15.30;62.40;;;;;;5090259;28;20460;-61
2022/05/04 11:54:06;;;;;;;8.82;2.60;;;15.50;62.60;;;;;;5088926;28;20444;-61
2022/05/04 11:56:33;;;;;;;8.90;2.75;;;15.60;62.70;;;;;;5083975;28;20047;-61
2022/05/04 11:58:59;;;;;;;7.28;3.13;;;15.80;62.80;;;;;;5085892;28;20036;-61
2022/05/04 12:01:25;;;;;;;7.00;3.17;;;15.90;62.50;;;;;;5084366;28;20403;-61
2022/05/04 12:03:51;;;;;;;8.45;3.50;;;16.00;62.40;;;;;;5087987;28;20040;-61
2022/05/04 12:06:17;;;;;;;7.70;3.28;;;16.20;62.00;;;;;;5084225;28;20048;-62
2022/05/04 12:08:43;;;;;;;8.75;2.65;;;16.10;61.50;;;;;;5085293;28;20043;-62
2022/05/04 12:11:09;;;;;;;9.02;2.80;;;16.10;61.00;;;;;;5085079;28;20403;-62
2022/05/04 12:13:37;;;;;;;9.75;3.38;;;16.20;60.90;;;;;;5085966;28;20058;-62
2022/05/04 12:16:04;;;;;;;7.47;3.10;;;16.30;60.80;;;;;;5085074;28;20047;-64
2022/05/04 12:18:32;;;;;;;7.55;3.00;;;16.40;60.70;;;;;;5082851;28;20444;-63
2022/05/04 12:21:14;;;;;;;8.25;3.17;;;16.30;61.20;;;;;;5082983;28;20093;-62
2022/05/04 12:23:44;;;;;;;8.43;2.95;;;16.30;61.40;;;;;;5080912;28;20048;-64
2022/05/04 12:26:12;;;;;;;8.27;3.10;;;16.20;62.00;;;;;;5087503;28;20430;-62
2022/05/04 12:28:39;;;;;;;7.75;2.92;;;16.00;61.00;;;;;;5087525;28;20040;-63
2022/05/04 12:33:50;;;;;;;8.07;3.40;;;16.10;62.20;;;;;;5086357;28;20062;-63
2022/05/04 12:36:18;;;;;;;7.68;3.42;;;16.10;62.00;;;;;;5082917;28;20337;-62
2022/05/04 12:38:47;;;;;;;8.38;3.10;;;16.30;61.70;;;;;;5088651;28;20040;-62
2022/05/04 12:41:20;;;;;;;7.32;3.00;;;16.30;61.00;;;;;;5088963;28;20055;-64
2022/05/04 12:43:47;;;;;;;8.23;3.15;;;16.40;60.10;;;;;;5090368;28;20040;-63
2022/05/04 12:46:15;;;;;;;6.18;2.85;;;16.40;59.50;;;;;;5086323;28;20437;-63
2022/05/04 12:48:45;;;;;;;11.63;3.17;;;16.30;59.30;;;;;;5088767;28;20032;-62
2022/05/04 12:51:17;;;;;;;8.85;3.08;;;16.20;60.10;;;;;;5087703;28;20681;-62
2022/05/04 12:53:48;;;;;;;10.88;3.30;;;16.20;60.10;;;;;;5089645;28;20048;-61
2022/05/04 12:59:01;;;;;;;11.25;3.60;;;16.20;60.50;;;;;;5083754;28;20443;-62
2022/05/04 13:01:28;;;;;;;9.10;3.03;;;16.20;61.80;;;;;;5082485;28;20059;-63
2022/05/04 13:03:54;;;;;;;9.90;3.75;;;16.30;60.90;;;;;;5084382;28;20035;-62
2022/05/04 13:06:22;;;;;;;7.78;3.10;;;16.30;61.00;;;;;;5081746;28;20101;-62
2022/05/04 13:08:48;;;;;;;8.20;3.88;;;16.40;61.50;;;;;;5084536;28;20058;-62
2022/05/04 13:11:19;;;;;;;9.07;3.35;;;16.60;61.30;;;;;;5083478;28;20045;-62
2022/05/04 13:13:45;;;;;;;11.55;3.80;;;16.60;60.60;;;;;;5081664;28;20126;-62
2022/05/04 13:16:11;;;;;;;7.40;3.60;;;16.80;60.70;;;;;;5082740;28;20567;-62
2022/05/04 13:18:38;;;;;;;10.27;3.58;;;16.70;60.10;;;;;;5082010;28;20480;-62
2022/05/04 13:21:04;;;;;;;7.40;3.22;;;16.70;60.20;;;;;;5081334;28;20044;-61
2022/05/04 13:23:30;;;;;;;9.15;3.42;;;16.90;60.70;;;;;;5079763;28;20047;-62
2022/05/04 13:25:56;;;;;;;10.57;3.58;;;16.90;60.40;;;;;;5082093;28;20056;-62
2022/05/04 13:28:22;;;;;;;11.93;3.72;;;16.90;59.60;;;;;;5083553;28;20055;-61